Huvudsida
METAR-TAF:

METAR-TAF

Flygplatser :

Bamako, Mali

latitud: 12-32N, longitud: 007-57W, höjd: 380 m

Aktuellt väderrapport

Denna rapport gjordes för 37 minuter sedan, klockan 23:00 UTC
Vind 5 kt från nord/nordost
Temperatur 24°C
Fuktighet 44%
Tryck 1014 hPa
Sikt 10 km eller mer
Inga moln under 1 500 m eller inga cumulonimbus

METAR: GABS 182300Z 03005KT CAVOK 24/11 Q1014 NOSIG

Tid: 23:37 (23:37 UTC)

Väderprognos

Denna rapport gjordes för 37 minuter sedan, klockan 23:00 UTC
Prognos gäller från 19 kl. 00 UTC till 20 kl. 06 UTC
Vind 6 kt från nord/nordost
Sikt 10 km eller mer
Inga moln under 1 500 m eller inga cumulonimbus

TAF: GABS 182300Z 1900/2006 02006KT CAVOK

Aktuella väderrapporter och prognoser från 4000 flygplatser (METAR- och TAF-rapporter).

De tillgängliga stationerna syns som gula och röda prickar på kartan.

För musen över prickarna för att se namnen på stationerna.

Klicka sedan för att få väderrapporter och prognoser.

För att ändra kartan: Klicka på de gröna knapparna med ett svart kors på för att zooma in; den gröna knappen med ett streck på för att zooma ut; eller på de gröna pilarna för angränsande kartor.


METAR-TAF: